Time;durP1;ratioP1;P1;durP2;ratioP2;P2;SDS_P1;SDS_P2;PMS_P1;PMS_P2;Temp;Humidity;BMP_temperature;BMP_pressure;BME280_temperature;BME280_humidity;BME280_pressure;Samples;Min_cycle;Max_cycle;Signal;HPM_P1;HPM_P2
2021/09/14 00:02:03;;;;;;;4.35;3.50;;;17.00;75.10;;;;;;5000756;28;20041;-68
2021/09/14 00:04:29;;;;;;;6.78;3.85;;;16.90;75.20;;;;;;5000826;28;20083;-70
2021/09/14 00:06:54;;;;;;;4.22;3.83;;;16.90;75.40;;;;;;5000853;28;20535;-69
2021/09/14 00:09:20;;;;;;;3.80;3.50;;;16.90;75.40;;;;;;5002211;28;20041;-70
2021/09/14 00:11:46;;;;;;;4.13;3.75;;;16.80;75.50;;;;;;5001648;28;20034;-70
2021/09/14 00:14:11;;;;;;;4.45;3.83;;;16.80;76.00;;;;;;5000920;28;20525;-70
2021/09/14 00:16:37;;;;;;;5.05;3.72;;;16.70;75.60;;;;;;5003362;28;20042;-70
2021/09/14 00:19:03;;;;;;;5.00;3.60;;;16.70;75.80;;;;;;5016696;28;20112;-71
2021/09/14 00:21:28;;;;;;;4.55;4.07;;;16.70;75.80;;;;;;4999035;28;20032;-70
2021/09/14 00:23:54;;;;;;;4.88;3.58;;;16.70;75.80;;;;;;4999940;28;20117;-69
2021/09/14 00:26:20;;;;;;;5.43;4.28;;;16.70;75.80;;;;;;4999679;28;20468;-71
2021/09/14 00:28:45;;;;;;;4.65;3.80;;;16.60;75.90;;;;;;5000353;28;20038;-70
2021/09/14 00:31:11;;;;;;;5.50;3.90;;;16.60;76.00;;;;;;4999880;28;20041;-70
2021/09/14 00:33:36;;;;;;;4.10;3.70;;;16.60;76.10;;;;;;4999702;28;20045;-70
2021/09/14 00:36:02;;;;;;;4.55;3.63;;;16.50;76.10;;;;;;4997966;28;20475;-70
2021/09/14 00:38:28;;;;;;;5.80;3.80;;;16.50;76.20;;;;;;5000917;28;20578;-70
2021/09/14 00:40:54;;;;;;;4.85;4.20;;;16.50;76.20;;;;;;5000251;28;20526;-70
2021/09/14 00:43:20;;;;;;;5.97;4.20;;;16.50;77.20;;;;;;4998436;28;20492;-70
2021/09/14 00:45:47;;;;;;;4.72;3.88;;;16.40;76.50;;;;;;5000708;28;20061;-70
2021/09/14 00:48:13;;;;;;;4.45;4.05;;;16.40;76.50;;;;;;5000794;28;20167;-70
2021/09/14 00:50:39;;;;;;;4.38;3.78;;;16.40;76.70;;;;;;4999377;28;20080;-69
2021/09/14 00:53:05;;;;;;;6.00;3.92;;;16.30;76.80;;;;;;4998400;28;21402;-69
2021/09/14 00:55:31;;;;;;;5.55;4.18;;;16.30;76.80;;;;;;4999841;28;20116;-71
2021/09/14 00:57:56;;;;;;;4.32;3.92;;;16.30;76.80;;;;;;4998175;28;20037;-69
2021/09/14 01:00:22;;;;;;;4.85;4.35;;;16.30;76.80;;;;;;5000584;28;20038;-70
2021/09/14 01:02:49;;;;;;;4.55;3.88;;;16.30;76.80;;;;;;5000011;28;20084;-70
2021/09/14 01:05:15;;;;;;;5.10;4.20;;;16.30;76.60;;;;;;4999793;28;20045;-70
2021/09/14 01:07:42;;;;;;;4.15;3.75;;;16.30;76.70;;;;;;5000479;28;20038;-70
2021/09/14 01:10:11;;;;;;;4.40;4.00;;;16.30;76.60;;;;;;4998868;28;20088;-70
2021/09/14 01:12:38;;;;;;;5.63;4.18;;;16.30;76.60;;;;;;4996946;28;20066;-70
2021/09/14 01:15:05;;;;;;;4.68;4.28;;;16.30;76.50;;;;;;5001623;28;20038;-70
2021/09/14 01:17:30;;;;;;;5.68;4.30;;;16.30;76.60;;;;;;5000109;28;20077;-70
2021/09/14 01:19:56;;;;;;;4.38;3.95;;;16.20;76.50;;;;;;5000603;28;20042;-70
2021/09/14 01:22:29;;;;;;;6.32;4.43;;;16.20;76.60;;;;;;4998070;28;22062;-72
2021/09/14 01:24:54;;;;;;;5.15;3.97;;;16.20;77.00;;;;;;4992705;28;20181;-70
2021/09/14 01:27:20;;;;;;;6.63;4.35;;;16.20;76.50;;;;;;4980033;28;20580;-70
2021/09/14 01:32:50;;;;;;;5.82;3.75;;;16.10;76.40;;;;;;4937344;28;20047;-70
2021/09/14 01:35:27;;;;;;;4.30;3.97;;;16.10;76.50;;;;;;4972163;28;20073;-69
2021/09/14 01:37:54;;;;;;;4.32;3.92;;;16.10;76.60;;;;;;4979820;28;20046;-70
2021/09/14 01:40:20;;;;;;;4.63;4.22;;;16.00;76.40;;;;;;4978582;28;20038;-70
2021/09/14 01:42:47;;;;;;;4.25;3.80;;;16.00;76.60;;;;;;4978207;28;20050;-69
2021/09/14 01:45:14;;;;;;;4.25;3.88;;;15.90;76.60;;;;;;4985813;28;20074;-69
2021/09/14 01:47:40;;;;;;;8.35;4.20;;;15.90;76.70;;;;;;4985711;28;20509;-70
2021/09/14 01:50:08;;;;;;;4.95;3.90;;;15.80;76.80;;;;;;4977497;28;20035;-70
2021/09/14 01:52:34;;;;;;;7.25;4.20;;;15.80;77.00;;;;;;4978104;28;20073;-69
2021/09/14 01:55:04;;;;;;;4.60;4.20;;;15.80;77.10;;;;;;4984447;28;20133;-69
2021/09/14 01:57:35;;;;;;;6.00;3.90;;;15.70;77.30;;;;;;4977811;28;20034;-70
2021/09/14 02:00:05;;;;;;;3.88;3.58;;;15.70;77.20;;;;;;4979009;28;20416;-70
2021/09/14 02:05:10;;;;;;;4.82;3.90;;;15.70;77.40;;;;;;4975688;28;20125;-69
2021/09/14 02:58:56;;;;;;;4.35;3.95;;;15.30;77.70;;;;;;4997302;28;20033;-70
2021/09/14 03:01:22;;;;;;;4.68;4.03;;;15.20;77.80;;;;;;4996179;28;20080;-70
2021/09/14 03:03:49;;;;;;;6.10;4.00;;;15.10;77.80;;;;;;4998359;28;20033;-70
2021/09/14 03:06:17;;;;;;;5.00;4.50;;;15.10;77.90;;;;;;4996828;28;20038;-69
2021/09/14 03:08:43;;;;;;;4.47;4.00;;;15.10;78.00;;;;;;4999656;28;20037;-70
2021/09/14 03:11:14;;;;;;;4.93;4.18;;;15.10;78.10;;;;;;4997526;28;20027;-71
2021/09/14 03:13:41;;;;;;;4.20;3.90;;;15.10;78.40;;;;;;4998509;28;20028;-69
2021/09/14 03:16:08;;;;;;;4.00;3.70;;;15.10;78.20;;;;;;4996721;28;20442;-69
2021/09/14 03:18:35;;;;;;;7.15;4.00;;;15.10;78.10;;;;;;5000815;28;20033;-69
2021/09/14 03:21:02;;;;;;;7.15;3.85;;;15.10;78.20;;;;;;5001783;28;20128;-70
2021/09/14 03:23:28;;;;;;;4.20;3.85;;;15.10;78.10;;;;;;5000030;28;20030;-69
2021/09/14 03:25:54;;;;;;;4.65;4.15;;;15.10;78.00;;;;;;5002715;28;20037;-69
2021/09/14 03:28:19;;;;;;;4.93;4.18;;;15.10;78.00;;;;;;5000830;28;20505;-69
2021/09/14 03:30:45;;;;;;;4.65;4.15;;;15.00;78.00;;;;;;4999467;28;20066;-69
2021/09/14 03:33:11;;;;;;;5.22;3.92;;;15.00;78.00;;;;;;5001761;28;20107;-70
2021/09/14 03:35:37;;;;;;;6.72;4.18;;;15.00;78.10;;;;;;5001376;28;20034;-70
2021/09/14 03:38:03;;;;;;;4.97;3.97;;;14.90;78.20;;;;;;4999777;28;20034;-69
2021/09/14 03:40:29;;;;;;;4.82;3.92;;;14.90;78.40;;;;;;5000134;28;20030;-69
2021/09/14 03:42:54;;;;;;;4.57;4.18;;;14.90;78.40;;;;;;5001518;28;20505;-70
2021/09/14 03:45:20;;;;;;;5.90;3.97;;;14.80;78.40;;;;;;5004495;28;20117;-69
2021/09/14 03:47:46;;;;;;;7.18;4.40;;;14.80;78.50;;;;;;5003517;28;20034;-70
2021/09/14 03:50:12;;;;;;;4.47;4.07;;;14.80;78.60;;;;;;5000918;28;20037;-69
2021/09/14 03:52:38;;;;;;;4.85;4.32;;;14.80;78.50;;;;;;5000901;28;20088;-69
2021/09/14 03:55:05;;;;;;;4.05;3.70;;;14.80;78.50;;;;;;5000899;28;20045;-69
2021/09/14 03:57:31;;;;;;;4.47;4.03;;;14.80;78.40;;;;;;4998906;28;20504;-69
2021/09/14 03:59:56;;;;;;;4.55;4.15;;;14.80;78.30;;;;;;5001987;28;20562;-69
2021/09/14 04:07:25;;;;;;;6.38;4.35;;;14.80;78.20;;;;;;5003908;28;20492;-69
2021/09/14 04:09:52;;;;;;;8.13;4.53;;;14.80;78.10;;;;;;5000140;28;20038;-69
2021/09/14 04:12:18;;;;;;;6.32;4.47;;;14.80;78.30;;;;;;4998975;28;20145;-69
2021/09/14 04:14:43;;;;;;;4.85;4.35;;;14.80;78.40;;;;;;4999304;28;20498;-69
2021/09/14 04:17:10;;;;;;;7.63;5.10;;;14.70;78.40;;;;;;5000490;28;20037;-69
2021/09/14 04:19:36;;;;;;;4.78;4.35;;;14.70;78.50;;;;;;5002682;28;20038;-69
2021/09/14 04:22:02;;;;;;;6.35;4.50;;;14.60;78.60;;;;;;5002277;28;20026;-70
2021/09/14 04:24:28;;;;;;;5.25;4.15;;;14.60;78.70;;;;;;5004999;28;20038;-70
2021/09/14 04:26:53;;;;;;;7.05;4.32;;;14.60;78.70;;;;;;5001726;28;20034;-71
2021/09/14 04:29:19;;;;;;;4.95;4.45;;;14.60;78.70;;;;;;4998777;28;20034;-71
2021/09/14 04:31:45;;;;;;;5.28;4.28;;;14.60;78.70;;;;;;4998535;28;20323;-68
2021/09/14 04:34:11;;;;;;;5.05;4.32;;;14.60;78.80;;;;;;4997629;28;20045;-69
2021/09/14 04:36:37;;;;;;;5.28;4.60;;;14.60;78.90;;;;;;4991958;28;20031;-69
2021/09/14 04:39:02;;;;;;;5.85;4.50;;;14.50;78.90;;;;;;4984310;28;20030;-70
2021/09/14 04:41:28;;;;;;;5.22;4.72;;;14.50;78.90;;;;;;5000209;28;20045;-69
2021/09/14 04:43:54;;;;;;;4.70;4.22;;;14.60;79.10;;;;;;4998036;28;20046;-69
2021/09/14 04:46:19;;;;;;;5.93;4.38;;;14.50;78.90;;;;;;5000712;28;20035;-70
2021/09/14 04:48:45;;;;;;;7.22;4.68;;;14.50;78.90;;;;;;4999011;28;20030;-70
2021/09/14 04:51:10;;;;;;;7.32;5.13;;;14.50;78.90;;;;;;4999229;28;20030;-70
2021/09/14 04:53:36;;;;;;;7.85;4.63;;;14.50;78.90;;;;;;4998190;28;20029;-69
2021/09/14 04:56:02;;;;;;;5.05;4.55;;;14.50;78.90;;;;;;4999536;28;20038;-70
2021/09/14 04:58:27;;;;;;;6.53;4.32;;;14.50;78.80;;;;;;4997349;28;20041;-69
2021/09/14 05:00:53;;;;;;;5.47;4.95;;;14.50;78.70;;;;;;4997783;28;20039;-70
2021/09/14 05:03:18;;;;;;;4.72;4.00;;;14.50;78.90;;;;;;4997665;28;20030;-70
2021/09/14 05:05:44;;;;;;;4.65;4.25;;;14.50;78.90;;;;;;4999138;28;20269;-69
2021/09/14 05:08:09;;;;;;;4.80;4.38;;;14.50;78.90;;;;;;4999047;28;20451;-70
2021/09/14 05:10:35;;;;;;;6.20;4.32;;;14.50;78.90;;;;;;4996644;28;20073;-70
2021/09/14 05:13:03;;;;;;;5.18;4.20;;;14.50;78.90;;;;;;4997317;28;20092;-70
2021/09/14 05:15:28;;;;;;;4.82;4.18;;;14.50;78.90;;;;;;4997485;28;20409;-70
2021/09/14 05:17:54;;;;;;;6.03;4.72;;;14.50;78.90;;;;;;4996756;28;20042;-70
2021/09/14 05:20:20;;;;;;;7.53;4.88;;;14.40;78.80;;;;;;5001741;28;20065;-71
2021/09/14 05:22:49;;;;;;;5.70;4.47;;;14.50;78.90;;;;;;4997674;28;20128;-71
2021/09/14 05:25:15;;;;;;;6.18;4.38;;;14.40;78.90;;;;;;4997053;28;20396;-70
2021/09/14 05:27:41;;;;;;;7.68;4.40;;;14.40;79.10;;;;;;4999344;28;20038;-70
2021/09/14 05:30:07;;;;;;;5.07;4.57;;;14.40;79.30;;;;;;4997562;28;20516;-70
2021/09/14 05:32:34;;;;;;;4.93;4.45;;;14.40;79.40;;;;;;4997068;28;20841;-70
2021/09/14 05:34:59;;;;;;;7.72;4.90;;;14.40;79.60;;;;;;4998471;28;20062;-68
2021/09/14 05:37:25;;;;;;;7.25;4.85;;;14.40;79.80;;;;;;4997917;28;20121;-70
2021/09/14 05:39:51;;;;;;;6.75;4.50;;;14.40;79.80;;;;;;4996016;28;20116;-71
2021/09/14 05:42:17;;;;;;;5.47;4.75;;;14.30;79.80;;;;;;4996062;28;20516;-70
2021/09/14 05:44:42;;;;;;;9.18;5.10;;;14.40;79.90;;;;;;4998497;28;20487;-70
2021/09/14 05:47:08;;;;;;;5.22;4.72;;;14.40;80.10;;;;;;4997483;28;20228;-70
2021/09/14 05:49:34;;;;;;;9.25;5.35;;;14.40;80.10;;;;;;4996860;28;20441;-69
2021/09/14 05:51:59;;;;;;;10.93;5.53;;;14.40;80.30;;;;;;4997295;28;20038;-71
2021/09/14 05:54:25;;;;;;;10.02;5.95;;;14.40;80.50;;;;;;4997087;28;20828;-69
2021/09/14 05:56:51;;;;;;;9.70;5.95;;;14.50;80.70;;;;;;4999246;28;20030;-70
2021/09/14 05:59:17;;;;;;;15.32;5.65;;;14.50;80.80;;;;;;4996567;28;20034;-70
2021/09/14 06:01:42;;;;;;;9.93;5.82;;;14.50;80.80;;;;;;4998678;28;20037;-71
2021/09/14 06:04:08;;;;;;;6.97;5.90;;;14.50;80.90;;;;;;4997652;28;20453;-69
2021/09/14 06:06:34;;;;;;;10.75;5.47;;;14.60;81.20;;;;;;4997590;28;20038;-69
2021/09/14 06:08:59;;;;;;;9.70;5.63;;;14.70;81.30;;;;;;4997198;28;20038;-70
2021/09/14 06:11:25;;;;;;;12.82;6.70;;;14.60;81.30;;;;;;4999412;28;20100;-70
2021/09/14 06:13:50;;;;;;;12.23;7.43;;;14.70;81.50;;;;;;4998101;28;20044;-70
2021/09/14 06:16:16;;;;;;;11.02;6.90;;;14.70;81.80;;;;;;4999382;28;20042;-69
2021/09/14 06:18:42;;;;;;;13.50;6.85;;;14.80;82.00;;;;;;4999865;28;22655;-69
2021/09/14 06:21:09;;;;;;;14.52;7.82;;;14.80;82.00;;;;;;4996591;28;20038;-69
2021/09/14 06:23:35;;;;;;;12.45;8.00;;;14.90;82.30;;;;;;4998367;28;20045;-70
2021/09/14 06:26:00;;;;;;;14.07;7.85;;;14.90;82.50;;;;;;4998678;28;20029;-71
2021/09/14 06:28:26;;;;;;;11.38;7.32;;;15.00;82.70;;;;;;4997262;28;20026;-68
2021/09/14 06:30:52;;;;;;;13.32;9.15;;;15.10;82.90;;;;;;4999915;28;20523;-71
2021/09/14 06:33:18;;;;;;;10.20;8.00;;;15.10;83.10;;;;;;5005274;28;20432;-70
2021/09/14 06:35:43;;;;;;;10.60;8.10;;;15.20;83.30;;;;;;5003927;28;20121;-69
2021/09/14 06:38:09;;;;;;;12.80;8.05;;;15.30;83.40;;;;;;4999109;28;20030;-72
2021/09/14 06:40:35;;;;;;;14.07;8.43;;;15.40;83.70;;;;;;4998632;28;20050;-68
2021/09/14 06:43:00;;;;;;;17.20;8.32;;;15.40;83.70;;;;;;5000084;28;20033;-69
2021/09/14 06:45:26;;;;;;;16.30;8.68;;;15.50;83.80;;;;;;4998755;28;20037;-71
2021/09/14 06:47:52;;;;;;;13.38;8.05;;;15.60;83.60;;;;;;4997711;28;20041;-70
2021/09/14 06:50:21;;;;;;;14.82;8.82;;;15.60;83.70;;;;;;4998893;28;20038;-70
2021/09/14 06:52:48;;;;;;;10.45;8.65;;;15.80;84.00;;;;;;4997041;28;20746;-69
2021/09/14 06:55:14;;;;;;;10.20;8.27;;;15.80;83.90;;;;;;4981835;28;20065;-69
2021/09/14 06:57:40;;;;;;;16.13;8.82;;;15.90;83.80;;;;;;4980624;28;20409;-70
2021/09/14 07:00:06;;;;;;;15.10;9.95;;;16.00;83.80;;;;;;4979826;28;20042;-69
2021/09/14 07:02:32;;;;;;;12.73;9.13;;;16.00;83.80;;;;;;4979008;28;20034;-69
2021/09/14 07:04:58;;;;;;;14.65;9.25;;;16.10;84.80;;;;;;4980910;28;20042;-70
2021/09/14 07:07:23;;;;;;;15.25;9.55;;;16.20;84.00;;;;;;4978547;28;20129;-70
2021/09/14 07:09:49;;;;;;;16.50;10.57;;;16.30;83.80;;;;;;4978722;28;20786;-69
2021/09/14 07:12:15;;;;;;;12.02;9.60;;;16.30;83.70;;;;;;4977759;28;20092;-70
2021/09/14 07:14:40;;;;;;;11.20;9.98;;;16.50;83.80;;;;;;4977496;28;20426;-69
2021/09/14 07:17:06;;;;;;;14.85;9.73;;;16.50;83.60;;;;;;4977559;28;20089;-69
2021/09/14 07:19:32;;;;;;;13.50;9.43;;;16.60;83.60;;;;;;4978075;28;20026;-70
2021/09/14 07:21:57;;;;;;;13.23;10.57;;;16.70;83.60;;;;;;4980811;28;20041;-70
2021/09/14 07:24:23;;;;;;;11.90;9.73;;;16.80;83.60;;;;;;4983000;28;20517;-71
2021/09/14 07:26:48;;;;;;;13.13;9.43;;;16.90;83.40;;;;;;4978920;28;20402;-70
2021/09/14 07:29:14;;;;;;;11.05;8.82;;;16.90;83.20;;;;;;4979588;28;20039;-70
2021/09/14 07:31:41;;;;;;;12.45;9.30;;;17.00;83.10;;;;;;4980187;28;20049;-70
2021/09/14 07:34:07;;;;;;;13.82;9.05;;;17.10;83.10;;;;;;4979600;28;20189;-70
2021/09/14 07:36:32;;;;;;;10.00;8.85;;;17.20;83.00;;;;;;4979012;28;20504;-70
2021/09/14 07:38:58;;;;;;;19.23;9.50;;;17.30;83.00;;;;;;4984259;28;20039;-69
2021/09/14 07:41:24;;;;;;;12.30;9.00;;;17.40;82.90;;;;;;4979556;28;20171;-69
2021/09/14 07:43:49;;;;;;;15.75;9.65;;;17.50;82.70;;;;;;4978334;28;20097;-67
2021/09/14 07:46:15;;;;;;;15.45;10.40;;;17.60;82.70;;;;;;4980213;28;20028;-69
2021/09/14 07:48:40;;;;;;;12.80;10.05;;;17.70;82.50;;;;;;4979055;28;20409;-69
2021/09/14 07:51:06;;;;;;;12.50;9.27;;;17.80;82.20;;;;;;4980210;28;20034;-70
2021/09/14 07:53:32;;;;;;;13.40;9.43;;;17.90;82.00;;;;;;4990257;28;20120;-69
2021/09/14 07:55:57;;;;;;;11.27;8.85;;;18.00;82.00;;;;;;4987264;28;20034;-67
2021/09/14 07:58:23;;;;;;;12.43;9.10;;;18.00;81.90;;;;;;4979015;28;20034;-67
2021/09/14 08:00:49;;;;;;;11.07;8.20;;;18.10;81.90;;;;;;4979203;28;20595;-69
2021/09/14 08:03:14;;;;;;;16.60;8.77;;;18.20;81.60;;;;;;4979927;28;20042;-66
2021/09/14 08:05:40;;;;;;;11.70;8.88;;;18.30;81.50;;;;;;4991145;28;20035;-67
2021/09/14 08:08:07;;;;;;;12.55;8.00;;;18.40;81.40;;;;;;4993250;28;20138;-67
2021/09/14 08:10:33;;;;;;;12.80;7.75;;;18.50;81.20;;;;;;4982424;28;20512;-68
2021/09/14 08:12:59;;;;;;;11.32;7.22;;;18.60;81.10;;;;;;4982558;28;20500;-67
2021/09/14 08:15:24;;;;;;;10.70;7.88;;;18.70;81.20;;;;;;4983067;28;20526;-67
2021/09/14 08:17:50;;;;;;;10.27;8.07;;;18.80;81.20;;;;;;4980670;28;20433;-67
2021/09/14 08:20:16;;;;;;;11.77;7.53;;;18.90;80.80;;;;;;4982317;28;20034;-67
2021/09/14 08:22:41;;;;;;;10.60;7.88;;;19.00;80.40;;;;;;4982015;28;20203;-66
2021/09/14 08:25:07;;;;;;;13.75;8.20;;;19.10;80.30;;;;;;4991902;28;20519;-67
2021/09/14 08:27:34;;;;;;;10.73;7.20;;;19.20;80.30;;;;;;4992731;28;20056;-67
2021/09/14 08:29:59;;;;;;;9.68;6.68;;;19.30;80.20;;;;;;5011258;28;20105;-67
2021/09/14 08:32:25;;;;;;;8.43;6.55;;;19.40;80.10;;;;;;5001358;28;20042;-67
2021/09/14 08:34:50;;;;;;;8.25;6.68;;;19.50;79.90;;;;;;5001476;28;20121;-67
2021/09/14 08:37:16;;;;;;;9.45;6.38;;;19.60;79.40;;;;;;5003118;28;20041;-68
2021/09/14 08:39:42;;;;;;;8.02;6.38;;;19.70;79.00;;;;;;5001456;28;20038;-68
2021/09/14 08:42:07;;;;;;;10.77;6.35;;;19.80;78.60;;;;;;5001066;28;20043;-67
2021/09/14 08:44:38;;;;;;;7.32;6.18;;;19.90;78.40;;;;;;5000362;28;20038;-67
2021/09/14 08:47:06;;;;;;;9.98;6.30;;;20.00;78.10;;;;;;5001384;28;20035;-67
2021/09/14 08:49:32;;;;;;;7.13;5.80;;;20.10;78.10;;;;;;5001635;28;20398;-67
2021/09/14 08:51:57;;;;;;;9.85;6.05;;;20.20;77.80;;;;;;5001017;28;20045;-68
2021/09/14 08:54:23;;;;;;;9.85;5.90;;;20.30;77.70;;;;;;5000749;28;20034;-68
2021/09/14 08:56:49;;;;;;;51.00;7.07;;;20.40;77.50;;;;;;5001441;28;20161;-67
2021/09/14 08:59:34;;;;;;;5.72;5.05;;;20.50;77.00;;;;;;5001582;28;20045;-67
2021/09/14 09:02:06;;;;;;;5.82;5.22;;;20.60;76.50;;;;;;5017520;28;20040;-68
2021/09/14 09:04:33;;;;;;;6.85;5.18;;;20.70;76.10;;;;;;5001130;28;20042;-67
2021/09/14 09:06:59;;;;;;;9.93;6.10;;;20.80;76.10;;;;;;5000528;28;20042;-68
2021/09/14 09:09:29;;;;;;;9.45;6.07;;;20.90;76.90;;;;;;5002355;28;20034;-67
2021/09/14 09:12:02;;;;;;;6.57;5.00;;;21.00;76.10;;;;;;5003997;28;20405;-67
2021/09/14 09:14:40;;;;;;;9.73;5.10;;;21.10;75.70;;;;;;5015454;28;20381;-67
2021/09/14 09:17:09;;;;;;;6.05;4.32;;;21.30;75.30;;;;;;5006670;28;20129;-66
2021/09/14 09:19:35;;;;;;;6.95;4.82;;;21.40;75.30;;;;;;5001668;28;20462;-67
2021/09/14 09:22:01;;;;;;;7.45;4.40;;;21.50;74.40;;;;;;5000791;28;20035;-70
2021/09/14 09:24:27;;;;;;;5.82;4.70;;;21.60;74.20;;;;;;5000895;28;20129;-69
2021/09/14 09:26:53;;;;;;;7.10;4.97;;;21.70;74.20;;;;;;5000067;28;20037;-68
2021/09/14 09:29:24;;;;;;;5.15;4.65;;;21.80;73.90;;;;;;5000935;28;20034;-69
2021/09/14 09:31:51;;;;;;;5.32;4.80;;;21.90;72.60;;;;;;4998822;28;20029;-68
2021/09/14 09:34:26;;;;;;;5.28;4.50;;;21.90;72.60;;;;;;5001282;28;20040;-69
2021/09/14 09:37:04;;;;;;;5.80;4.35;;;22.00;72.00;;;;;;5001668;28;20041;-68
2021/09/14 09:39:44;;;;;;;5.97;4.07;;;22.10;71.80;;;;;;5001343;28;20038;-68
2021/09/14 09:42:10;;;;;;;5.68;4.10;;;22.20;72.10;;;;;;5000882;28;20539;-68
2021/09/14 09:44:37;;;;;;;8.20;4.32;;;22.30;72.80;;;;;;5002616;28;20478;-68
2021/09/14 09:47:03;;;;;;;6.32;4.05;;;22.40;72.60;;;;;;5001718;28;20038;-68
2021/09/14 09:49:29;;;;;;;6.38;4.53;;;22.50;72.20;;;;;;5001977;28;20064;-68
2021/09/14 09:51:59;;;;;;;7.13;4.03;;;22.60;72.00;;;;;;5000078;28;20034;-71
2021/09/14 09:54:25;;;;;;;7.25;4.03;;;22.80;71.30;;;;;;5002505;28;20046;-68
2021/09/14 09:56:51;;;;;;;5.43;3.58;;;22.90;71.50;;;;;;5003187;28;20065;-68
2021/09/14 09:59:18;;;;;;;6.63;3.50;;;23.00;71.20;;;;;;5001329;28;20128;-70
2021/09/14 10:02:12;;;;;;;7.85;3.72;;;23.10;71.00;;;;;;5000785;28;20046;-70
2021/09/14 10:05:03;;;;;;;5.05;3.72;;;23.30;70.00;;;;;;4999113;28;20039;-70
2021/09/14 10:07:32;;;;;;;4.60;3.75;;;23.40;69.50;;;;;;5000587;28;20038;-69
2021/09/14 10:10:00;;;;;;;5.88;3.67;;;23.60;70.10;;;;;;4999637;28;20081;-70
2021/09/14 10:12:29;;;;;;;3.90;3.40;;;23.70;68.60;;;;;;4999426;28;20113;-71
2021/09/14 10:14:57;;;;;;;6.72;3.83;;;23.80;68.40;;;;;;4999680;28;20057;-71
2021/09/14 10:17:23;;;;;;;3.22;3.03;;;23.90;67.40;;;;;;5000950;28;20030;-69
2021/09/14 10:19:49;;;;;;;4.00;3.42;;;24.10;68.30;;;;;;4999913;28;20055;-67
2021/09/14 10:22:27;;;;;;;3.83;3.47;;;24.20;66.90;;;;;;4998442;28;20266;-70
2021/09/14 10:25:01;;;;;;;4.25;3.30;;;24.30;65.80;;;;;;4999588;28;20112;-68
2021/09/14 10:27:37;;;;;;;5.33;3.43;;;24.40;65.50;;;;;;5000464;28;20057;-68
2021/09/14 10:30:04;;;;;;;3.08;2.88;;;24.50;65.50;;;;;;4999958;28;20026;-68
2021/09/14 10:32:40;;;;;;;3.60;3.30;;;24.60;65.90;;;;;;4998562;28;20042;-68
2021/09/14 10:35:07;;;;;;;3.50;3.20;;;24.70;64.40;;;;;;5001775;28;22167;-68
2021/09/14 10:37:34;;;;;;;3.45;3.15;;;24.80;64.70;;;;;;4999646;28;20397;-68
2021/09/14 10:40:12;;;;;;;3.00;2.80;;;24.90;64.30;;;;;;4999945;28;20034;-68
2021/09/14 10:42:43;;;;;;;4.20;3.17;;;25.00;63.10;;;;;;4999198;28;20062;-68
2021/09/14 10:45:17;;;;;;;3.33;2.90;;;25.00;63.60;;;;;;4998884;28;20046;-68
2021/09/14 10:47:48;;;;;;;3.50;3.20;;;25.10;62.60;;;;;;4998111;28;20031;-68
2021/09/14 10:50:28;;;;;;;4.28;3.03;;;25.20;62.60;;;;;;4999194;28;20542;-68
2021/09/14 10:53:02;;;;;;;3.35;3.10;;;25.30;61.60;;;;;;4999498;28;20120;-68
2021/09/14 10:55:30;;;;;;;3.17;2.97;;;25.30;61.60;;;;;;4999948;28;20034;-68
2021/09/14 10:58:01;;;;;;;3.10;2.80;;;25.40;62.40;;;;;;4999048;28;20049;-68
2021/09/14 11:00:34;;;;;;;9.25;3.10;;;25.40;61.50;;;;;;5013600;28;20038;-68
2021/09/14 11:03:06;;;;;;;5.60;3.45;;;25.50;61.50;;;;;;4999907;28;20536;-67
2021/09/14 11:05:36;;;;;;;3.03;2.83;;;25.60;60.60;;;;;;4999118;28;20540;-68
2021/09/14 11:08:08;;;;;;;3.42;3.13;;;25.60;61.00;;;;;;5014351;28;20069;-67
2021/09/14 11:10:35;;;;;;;5.50;3.40;;;25.60;60.00;;;;;;4998389;28;20404;-68
2021/09/14 11:13:02;;;;;;;6.30;3.10;;;25.70;60.50;;;;;;4998732;28;20113;-68
2021/09/14 11:15:27;;;;;;;7.63;3.47;;;25.70;60.00;;;;;;5005088;28;20069;-68
2021/09/14 11:17:53;;;;;;;4.63;3.20;;;25.80;60.30;;;;;;4998854;28;20086;-64
2021/09/14 11:20:21;;;;;;;7.05;3.60;;;25.80;60.10;;;;;;4999870;28;20083;-68
2021/09/14 11:22:50;;;;;;;8.25;3.17;;;25.80;60.00;;;;;;4998413;28;20042;-68
2021/09/14 11:25:20;;;;;;;4.15;3.28;;;25.90;59.90;;;;;;4998885;28;20445;-68
2021/09/14 11:27:56;;;;;;;3.22;2.92;;;25.90;59.50;;;;;;4998651;28;20420;-68
2021/09/14 11:30:22;;;;;;;3.72;2.85;;;26.00;58.60;;;;;;5001280;28;20049;-67
2021/09/14 11:32:48;;;;;;;3.53;3.22;;;26.00;59.30;;;;;;4996331;28;21415;-68
2021/09/14 11:35:15;;;;;;;3.25;3.00;;;26.10;59.10;;;;;;4980321;28;20113;-68
2021/09/14 11:37:41;;;;;;;4.28;2.88;;;26.10;58.60;;;;;;4979578;28;20110;-68
2021/09/14 11:40:20;;;;;;;3.08;2.88;;;26.20;58.90;;;;;;4984607;28;20041;-68
2021/09/14 11:42:56;;;;;;;3.30;3.10;;;26.20;58.50;;;;;;4985281;28;20042;-68
2021/09/14 11:45:24;;;;;;;4.57;3.03;;;26.30;58.40;;;;;;4985637;28;20046;-68
2021/09/14 11:47:51;;;;;;;2.92;2.72;;;26.30;59.00;;;;;;4983787;28;20030;-68
2021/09/14 11:50:46;;;;;;;2.72;2.53;;;26.40;59.00;;;;;;4983335;28;20096;-69
2021/09/14 11:53:17;;;;;;;4.40;2.80;;;26.40;57.70;;;;;;4965183;28;20031;-67
2021/09/14 11:55:49;;;;;;;4.25;3.00;;;26.50;57.90;;;;;;4982462;28;20490;-67
2021/09/14 11:58:36;;;;;;;9.02;3.35;;;26.50;57.50;;;;;;4986600;28;20100;-68
2021/09/14 12:01:08;;;;;;;5.90;2.88;;;26.60;58.40;;;;;;4983743;28;20118;-68
2021/09/14 12:03:35;;;;;;;3.45;2.78;;;26.60;57.80;;;;;;4982258;28;20644;-68
2021/09/14 12:06:01;;;;;;;3.15;2.85;;;26.60;57.60;;;;;;4982433;28;20509;-68
2021/09/14 12:08:31;;;;;;;3.40;3.05;;;26.70;58.00;;;;;;4981970;28;20054;-68
2021/09/14 12:10:58;;;;;;;2.90;2.67;;;26.80;56.70;;;;;;4983192;28;20034;-68
2021/09/14 12:13:24;;;;;;;4.35;2.65;;;26.80;57.00;;;;;;4981533;28;20042;-68
2021/09/14 12:15:57;;;;;;;2.90;2.70;;;26.90;56.80;;;;;;4981905;28;20034;-69
2021/09/14 12:18:23;;;;;;;4.63;2.80;;;26.90;56.10;;;;;;4982839;28;20062;-68
2021/09/14 12:20:49;;;;;;;2.90;2.70;;;27.00;56.30;;;;;;5000066;28;20038;-68
2021/09/14 12:23:15;;;;;;;2.88;2.60;;;27.10;56.40;;;;;;5000291;28;20030;-67
2021/09/14 12:25:41;;;;;;;2.67;2.47;;;27.10;56.50;;;;;;5002464;28;20042;-68
2021/09/14 12:28:07;;;;;;;3.10;2.53;;;27.10;55.70;;;;;;5004214;28;20045;-69
2021/09/14 12:30:34;;;;;;;3.30;2.60;;;27.20;56.10;;;;;;5001844;28;20113;-68
2021/09/14 12:32:59;;;;;;;3.38;2.70;;;27.30;56.10;;;;;;5006504;28;20072;-68
2021/09/14 12:35:25;;;;;;;4.35;2.88;;;27.30;55.90;;;;;;5002310;28;20061;-68
2021/09/14 12:37:51;;;;;;;5.30;2.80;;;27.40;55.80;;;;;;5002201;28;20496;-68
2021/09/14 12:40:17;;;;;;;3.72;2.70;;;27.40;55.40;;;;;;5002136;28;20134;-68
2021/09/14 12:42:43;;;;;;;5.10;2.80;;;27.40;55.30;;;;;;5001583;28;20381;-68
2021/09/14 12:45:09;;;;;;;4.15;3.00;;;27.50;55.00;;;;;;5003005;28;20061;-68
2021/09/14 12:47:34;;;;;;;2.60;2.40;;;27.50;55.20;;;;;;5001397;28;20034;-66
2021/09/14 12:50:00;;;;;;;3.95;2.80;;;27.50;55.30;;;;;;5001436;28;20425;-68
2021/09/14 12:52:27;;;;;;;3.08;2.78;;;27.60;55.40;;;;;;5000545;28;20044;-68
2021/09/14 12:54:53;;;;;;;3.95;2.05;;;27.60;54.10;;;;;;5002241;28;20122;-68
2021/09/14 12:57:19;;;;;;;2.95;2.15;;;27.70;53.40;;;;;;5002171;28;20405;-69
2021/09/14 12:59:45;;;;;;;4.43;2.42;;;27.70;53.50;;;;;;5001719;28;20056;-69
2021/09/14 13:02:10;;;;;;;6.63;2.63;;;27.70;53.00;;;;;;5002079;28;20533;-68
2021/09/14 13:04:36;;;;;;;3.35;2.13;;;27.70;52.90;;;;;;5001050;28;20042;-68
2021/09/14 13:07:02;;;;;;;1.90;1.80;;;27.80;52.70;;;;;;5001361;28;20042;-68
2021/09/14 13:09:27;;;;;;;11.20;2.28;;;27.80;52.10;;;;;;5001826;28;20437;-68
2021/09/14 13:11:53;;;;;;;2.47;2.22;;;27.80;51.90;;;;;;4996646;28;20046;-68
2021/09/14 13:17:03;;;;;;;2.30;2.10;;;27.80;51.70;;;;;;5002331;28;20065;-68
2021/09/14 13:19:29;;;;;;;2.75;2.25;;;27.80;51.90;;;;;;5001421;28;20038;-68
2021/09/14 13:21:54;;;;;;;2.47;2.28;;;27.90;51.60;;;;;;5003327;28;20120;-68
2021/09/14 13:24:20;;;;;;;2.72;2.53;;;27.90;52.20;;;;;;5001475;28;20068;-68
2021/09/14 13:26:46;;;;;;;3.10;2.60;;;27.90;52.20;;;;;;5001242;28;20057;-68
2021/09/14 13:29:11;;;;;;;2.20;2.10;;;28.00;51.70;;;;;;5003122;28;20513;-68
2021/09/14 13:31:37;;;;;;;2.50;2.20;;;28.00;51.90;;;;;;5002088;28;20481;-68
2021/09/14 13:34:02;;;;;;;2.90;2.20;;;28.00;51.70;;;;;;5005487;28;20354;-69
2021/09/14 13:36:29;;;;;;;2.53;2.08;;;28.00;51.50;;;;;;5000292;28;20054;-68
2021/09/14 13:38:55;;;;;;;2.30;2.10;;;28.00;51.30;;;;;;5000890;28;20049;-68
2021/09/14 13:41:27;;;;;;;4.95;2.30;;;28.00;51.90;;;;;;5000474;28;20500;-68
2021/09/14 13:43:54;;;;;;;3.45;2.22;;;28.00;51.60;;;;;;4999244;28;20133;-68
2021/09/14 13:46:20;;;;;;;2.47;1.92;;;28.10;51.60;;;;;;5001031;28;20400;-68
2021/09/14 13:48:54;;;;;;;1.90;1.80;;;28.10;51.20;;;;;;4999898;28;20033;-68
2021/09/14 13:51:26;;;;;;;2.42;2.25;;;28.10;50.90;;;;;;4996099;28;20121;-68